Time;durP1;ratioP1;P1;durP2;ratioP2;P2;SDS_P1;SDS_P2;PMS_P1;PMS_P2;Temp;Humidity;BMP_temperature;BMP_pressure;BME280_temperature;BME280_humidity;BME280_pressure;Samples;Min_cycle;Max_cycle;Signal;HPM_P1;HPM_P2
2022/10/24 00:01:17;;;;;;;9.08;5.25;;;;;;;11.45;77.71;100273.41;1748752;80;20969;-73
2022/10/24 00:03:48;;;;;;;7.90;5.65;;;;;;;11.46;77.76;100284.83;1746824;81;21000;-73
2022/10/24 00:06:17;;;;;;;6.00;5.00;;;;;;;11.45;77.88;100301.18;1741351;80;21897;-73
2022/10/24 00:08:44;;;;;;;7.55;5.03;;;;;;;11.45;77.96;100299.86;1749430;80;21423;-72
2022/10/24 00:11:17;;;;;;;8.55;5.28;;;;;;;11.46;77.97;100304.17;1744517;81;21485;-70
2022/10/24 00:13:46;;;;;;;7.37;5.10;;;;;;;11.48;78.05;100302.72;1751350;81;20962;-72
2022/10/24 00:16:16;;;;;;;6.12;5.00;;;;;;;11.50;78.08;100303.94;1726913;81;21435;-72
2022/10/24 00:18:45;;;;;;;6.92;5.25;;;;;;;11.47;78.17;100307.17;1755248;79;21915;-72
2022/10/24 00:21:13;;;;;;;7.30;4.97;;;;;;;11.49;78.23;100303.10;1722573;81;21116;-73
2022/10/24 00:23:43;;;;;;;8.65;5.15;;;;;;;11.51;78.34;100302.97;1730817;80;21558;-73
2022/10/24 00:26:11;;;;;;;6.28;4.92;;;;;;;11.52;78.38;100304.64;1730779;81;21414;-73
2022/10/24 00:28:39;;;;;;;5.78;4.70;;;;;;;11.54;78.48;100302.22;1742173;79;21545;-73
2022/10/24 00:31:10;;;;;;;6.03;4.83;;;;;;;11.56;78.55;100298.95;1741866;81;21072;-73
2022/10/24 00:33:39;;;;;;;7.20;4.90;;;;;;;11.58;78.59;100293.52;1784076;78;21442;-74
2022/10/24 00:36:13;;;;;;;5.50;4.90;;;;;;;11.58;78.64;100302.33;1790952;77;20997;-73
2022/10/24 00:38:41;;;;;;;7.22;5.40;;;;;;;11.59;78.63;100306.65;1786651;78;21057;-74
2022/10/24 00:41:22;;;;;;;6.50;4.42;;;;;;;11.62;78.63;100308.19;1778816;78;21512;-72
2022/10/24 00:44:13;;;;;;;6.28;5.20;;;;;;;11.62;78.71;100303.73;1783104;79;22649;-72
2022/10/24 00:47:12;;;;;;;11.45;5.37;;;;;;;11.61;78.79;100302.06;1782411;78;21071;-72
2022/10/24 00:49:59;;;;;;;6.92;5.17;;;;;;;11.64;78.81;100300.95;1764874;79;21052;-73
2022/10/24 00:52:28;;;;;;;7.22;5.20;;;;;;;11.65;78.84;100295.52;1779707;78;20960;-73
2022/10/24 00:54:58;;;;;;;5.55;4.60;;;;;;;11.65;78.90;100295.52;1770202;79;20957;-73
2022/10/24 00:57:42;;;;;;;5.30;4.80;;;;;;;11.66;78.94;100289.26;1777892;78;21796;-73
2022/10/24 01:00:14;;;;;;;5.65;4.87;;;;;;;11.64;78.99;100291.20;1787585;78;21075;-71
2022/10/24 01:02:40;;;;;;;5.25;4.75;;;;;;;11.65;79.00;100293.36;1806431;78;21447;-73
2022/10/24 01:05:08;;;;;;;6.97;5.17;;;;;;;11.65;78.99;100292.88;1798614;78;21827;-72
2022/10/24 01:08:06;;;;;;;8.08;5.03;;;;;;;11.65;78.98;100294.69;1786362;79;21384;-71
2022/10/24 01:10:56;;;;;;;8.28;5.53;;;;;;;11.62;78.92;100290.98;1753138;79;21854;-72
2022/10/24 01:13:58;;;;;;;8.78;5.50;;;;;;;11.58;78.99;100298.36;1780516;79;20992;-72
2022/10/24 01:16:40;;;;;;;6.33;5.20;;;;;;;11.57;79.13;100295.81;1760006;78;20977;-72
2022/10/24 01:19:34;;;;;;;10.18;5.90;;;;;;;11.56;79.25;100298.95;1707059;82;21104;-72
2022/10/24 01:22:07;;;;;;;7.65;5.80;;;;;;;11.56;79.34;100297.63;1793965;79;21041;-71
2022/10/24 01:25:04;;;;;;;7.72;5.50;;;;;;;11.56;79.40;100300.76;1751214;79;21883;-72
2022/10/24 01:28:10;;;;;;;7.22;5.75;;;;;;;11.57;79.44;100294.50;1723597;81;21078;-71
2022/10/24 01:30:51;;;;;;;6.58;5.62;;;;;;;11.56;79.39;100291.02;1774665;78;21027;-72
2022/10/24 01:33:31;;;;;;;9.23;5.97;;;;;;;11.55;79.45;100288.50;1777973;79;21089;-71
2022/10/24 01:36:10;;;;;;;8.10;5.80;;;;;;;11.53;79.50;100294.41;1723688;80;21075;-73
2022/10/24 01:38:50;;;;;;;8.60;5.78;;;;;;;11.52;79.52;100293.58;1771532;79;21848;-72
2022/10/24 01:41:20;;;;;;;7.17;5.83;;;;;;;11.52;79.55;100295.39;1771223;79;21048;-72
2022/10/24 01:44:01;;;;;;;11.45;6.10;;;;;;;11.50;79.66;100297.33;1803823;77;21605;-72
2022/10/24 01:46:33;;;;;;;8.05;5.60;;;;;;;11.50;79.74;100287.59;1780726;78;20946;-72
2022/10/24 01:49:07;;;;;;;7.87;5.95;;;;;;;11.50;79.76;100290.23;1756765;80;21099;-72
2022/10/24 01:51:33;;;;;;;8.83;5.83;;;;;;;11.52;79.77;100298.03;1720380;81;21837;-71
2022/10/24 01:54:00;;;;;;;8.18;5.62;;;;;;;11.53;79.81;100300.54;1725565;81;20997;-72
2022/10/24 01:56:26;;;;;;;6.78;5.80;;;;;;;11.53;79.77;100297.06;1732996;81;20992;-73
2022/10/24 01:59:05;;;;;;;8.83;6.12;;;;;;;11.55;79.81;100296.44;1728795;81;20991;-72
2022/10/24 02:01:32;;;;;;;7.35;5.67;;;;;;;11.55;79.84;100300.41;1728461;82;21034;-72
2022/10/24 02:04:02;;;;;;;6.95;5.80;;;;;;;11.56;79.91;100302.08;1718818;81;21842;-72
2022/10/24 02:06:36;;;;;;;7.20;5.75;;;;;;;11.57;79.93;100302.43;1716911;81;20996;-73
2022/10/24 02:09:06;;;;;;;;;;;;;;;11.57;79.97;100304.59;1732056;82;21520;-72
2022/10/24 02:11:33;;;;;;;12.40;5.95;;;;;;;11.56;80.00;100310.85;1736183;82;21062;-72
2022/10/24 02:14:27;;;;;;;7.47;6.17;;;;;;;11.56;80.02;100310.85;1715227;82;21032;-72
2022/10/24 02:16:55;;;;;;;7.00;5.70;;;;;;;11.56;80.09;100308.69;1719428;81;22284;-73
2022/10/24 02:19:22;;;;;;;9.30;6.10;;;;;;;11.55;80.04;100310.98;1711485;81;21458;-72
2022/10/24 02:22:08;;;;;;;7.78;5.95;;;;;;;11.51;80.06;100318.36;1743381;81;21407;-71
2022/10/24 02:24:55;;;;;;;7.10;5.47;;;;;;;11.50;80.02;100315.84;1710372;82;21017;-72
2022/10/24 02:27:26;;;;;;;7.12;6.05;;;;;;;11.49;79.97;100311.04;1727986;82;21056;-71
2022/10/24 02:30:15;;;;;;;8.33;5.92;;;;;;;11.45;79.95;100317.53;1800621;79;21829;-71
2022/10/24 02:32:46;;;;;;;8.38;6.10;;;;;;;11.41;79.91;100320.93;1772551;79;21051;-72
2022/10/24 02:35:15;;;;;;;8.90;6.30;;;;;;;11.36;79.86;100321.78;1785189;79;21009;-72
2022/10/24 02:37:48;;;;;;;8.43;6.03;;;;;;;11.32;79.90;100328.31;1785102;79;38588;-72
2022/10/24 02:40:15;;;;;;;8.18;5.70;;;;;;;11.31;79.93;100333.24;1769577;79;21028;-72
2022/10/24 02:42:43;;;;;;;9.78;5.92;;;;;;;11.29;79.96;100331.67;1772941;79;21945;-72
2022/10/24 02:45:11;;;;;;;11.03;6.00;;;;;;;11.26;80.09;100333.26;1763395;78;21044;-72
2022/10/24 02:47:38;;;;;;;9.03;5.92;;;;;;;11.23;80.12;100340.97;1798942;78;20945;-71
2022/10/24 02:50:08;;;;;;;8.23;6.03;;;;;;;11.20;80.32;100339.91;1787069;79;20974;-72
2022/10/24 02:52:38;;;;;;;6.97;6.03;;;;;;;11.18;80.43;100344.45;1785911;79;21095;-72
2022/10/24 02:55:06;;;;;;;10.90;6.12;;;;;;;11.18;80.57;100342.66;1786824;79;21838;-71
2022/10/24 02:57:33;;;;;;;8.85;6.30;;;;;;;11.18;80.70;100339.17;1804261;78;21492;-71
2022/10/24 03:00:00;;;;;;;9.85;6.35;;;;;;;11.18;80.87;100337.36;1804829;78;21036;-72
2022/10/24 03:02:26;;;;;;;9.28;6.00;;;;;;;11.19;81.02;100343.49;1776948;79;20992;-72
2022/10/24 03:04:54;;;;;;;7.75;5.97;;;;;;;11.21;81.15;100343.39;1746646;81;21041;-71
2022/10/24 03:07:21;;;;;;;8.50;6.12;;;;;;;11.22;81.22;100339.30;1712484;82;21869;-72
2022/10/24 03:09:48;;;;;;;14.23;6.75;;;;;;;11.25;81.35;100342.16;1780475;79;20949;-72
2022/10/24 03:12:15;;;;;;;7.20;5.90;;;;;;;11.27;81.50;100341.05;1761404;79;21081;-71
2022/10/24 03:14:44;;;;;;;6.90;5.47;;;;;;;11.29;81.63;100342.25;1744724;79;21142;-72
2022/10/24 03:17:10;;;;;;;8.38;6.10;;;;;;;11.31;81.80;100345.63;1772465;77;21048;-72
2022/10/24 03:19:38;;;;;;;9.98;6.33;;;;;;;11.34;81.74;100346.20;1787632;78;21833;-71
2022/10/24 03:22:04;;;;;;;6.50;5.80;;;;;;;11.36;81.72;100346.91;1770377;79;20997;-72
2022/10/24 03:24:31;;;;;;;8.20;6.03;;;;;;;11.38;81.66;100344.97;1791439;78;21017;-72
2022/10/24 03:26:58;;;;;;;7.05;5.87;;;;;;;11.39;81.64;100349.80;1780120;79;21033;-71
2022/10/24 03:29:24;;;;;;;5.90;5.25;;;;;;;11.39;81.61;100345.34;1774304;78;21059;-72
2022/10/24 03:31:51;;;;;;;7.17;5.60;;;;;;;11.41;81.57;100345.22;1770558;79;22088;-71
2022/10/24 03:34:17;;;;;;;8.20;5.67;;;;;;;11.41;81.52;100335.96;1771981;79;20968;-71
2022/10/24 03:36:44;;;;;;;7.83;5.67;;;;;;;11.43;81.47;100340.63;1779077;79;21048;-72
2022/10/24 03:39:10;;;;;;;7.78;5.58;;;;;;;11.42;81.45;100339.80;1753124;81;20961;-72
2022/10/24 03:41:38;;;;;;;8.40;5.53;;;;;;;11.43;81.38;100343.28;1777488;78;20942;-72
2022/10/24 03:44:04;;;;;;;6.62;5.08;;;;;;;11.44;81.32;100340.50;1765198;79;21992;-72
2022/10/24 03:46:31;;;;;;;8.43;5.80;;;;;;;11.44;81.25;100348.44;1780539;79;21010;-72
2022/10/24 03:48:58;;;;;;;7.33;5.35;;;;;;;11.43;81.21;100354.70;1791056;78;21592;-72
2022/10/24 03:51:24;;;;;;;8.78;5.45;;;;;;;11.45;81.13;100352.75;1766325;79;21092;-72
2022/10/24 03:53:51;;;;;;;8.08;5.53;;;;;;;11.46;81.11;100349.14;1770115;78;21082;-72
2022/10/24 03:56:17;;;;;;;6.53;5.15;;;;;;;11.49;81.05;100353.84;1774351;78;22040;-71
2022/10/24 03:58:45;;;;;;;13.75;12.20;;;;;;;11.52;80.99;100353.58;1752731;80;21026;-72
2022/10/24 04:01:16;;;;;;;25.30;21.90;;;;;;;11.51;80.85;100357.19;1786369;78;20969;-72
2022/10/24 04:03:41;;;;;;;14.23;11.68;;;;;;;11.52;80.76;100362.84;1795025;78;21410;-73
2022/10/24 04:06:11;;;;;;;8.93;6.95;;;;;;;11.49;80.63;100363.94;1804109;78;21423;-72
2022/10/24 04:08:39;;;;;;;7.60;5.47;;;;;;;11.49;80.59;100363.94;1786996;79;21499;-72
2022/10/24 04:11:06;;;;;;;5.97;5.25;;;;;;;11.47;80.51;100366.69;1769144;79;21448;-73
2022/10/24 04:13:34;;;;;;;7.37;5.60;;;;;;;11.47;80.44;100369.81;1763295;79;21506;-73
2022/10/24 04:16:02;;;;;;;10.58;5.97;;;;;;;11.45;80.33;100365.98;1804479;78;21012;-72
2022/10/24 04:18:29;;;;;;;10.25;5.65;;;;;;;11.40;80.30;100369.50;1798294;79;21482;-71
2022/10/24 04:20:55;;;;;;;8.35;5.70;;;;;;;11.36;80.36;100371.19;1803207;78;21919;-72
2022/10/24 04:23:22;;;;;;;10.68;5.75;;;;;;;11.31;80.41;100378.20;1793076;79;21093;-71
2022/10/24 04:25:48;;;;;;;7.20;5.67;;;;;;;11.30;80.39;100372.55;1771567;79;21454;-72
2022/10/24 04:28:15;;;;;;;11.28;6.37;;;;;;;11.28;80.38;100385.03;1776108;79;21011;-73
2022/10/24 04:30:42;;;;;;;8.48;5.78;;;;;;;11.24;80.50;100383.63;1756866;79;21068;-73
2022/10/24 04:33:08;;;;;;;10.63;6.15;;;;;;;11.20;80.65;100387.50;1751321;79;21892;-72
2022/10/24 04:35:35;;;;;;;9.85;6.05;;;;;;;11.18;80.68;100387.59;1731355;81;21016;-72
2022/10/24 04:38:01;;;;;;;9.48;6.20;;;;;;;11.16;80.73;100383.41;1722055;81;21080;-72
2022/10/24 04:40:28;;;;;;;9.30;6.00;;;;;;;11.14;80.81;100390.14;1727130;81;21091;-72
2022/10/24 04:42:55;;;;;;;7.50;6.00;;;;;;;11.13;80.89;100382.34;1727407;81;21621;-72
2022/10/24 04:45:21;;;;;;;6.50;5.45;;;;;;;11.12;80.92;100387.28;1732779;80;21835;-71
2022/10/24 04:47:48;;;;;;;11.70;6.10;;;;;;;11.07;80.92;100390.77;1787770;79;21088;-74
2022/10/24 04:50:15;;;;;;;7.67;5.67;;;;;;;11.04;80.95;100389.22;1764290;78;21005;-72
2022/10/24 04:52:41;;;;;;;9.25;6.62;;;;;;;11.03;80.99;100395.95;1810974;78;21386;-72
2022/10/24 04:55:08;;;;;;;11.38;6.58;;;;;;;11.02;81.03;100398.23;1802460;78;21067;-72
2022/10/24 04:57:35;;;;;;;10.05;6.05;;;;;;;11.01;81.04;100401.37;1814631;77;21746;-73
2022/10/24 05:00:04;;;;;;;9.68;6.20;;;;;;;10.98;81.09;100402.91;1720767;80;21008;-72
2022/10/24 05:02:38;;;;;;;6.78;5.95;;;;;;;10.97;81.10;100406.52;1738601;80;21063;-72
2022/10/24 05:05:08;;;;;;;8.15;6.40;;;;;;;10.97;81.09;100410.97;1745754;80;21088;-73
2022/10/24 05:07:35;;;;;;;12.47;7.37;;;;;;;10.94;81.03;100414.70;1765773;81;21076;-72
2022/10/24 05:10:04;;;;;;;8.65;6.95;;;;;;;10.94;81.07;100413.87;1762508;79;21842;-72
2022/10/24 05:12:31;;;;;;;10.70;7.40;;;;;;;10.94;81.18;100408.10;1735675;81;20965;-72
2022/10/24 05:14:59;;;;;;;9.88;6.97;;;;;;;10.96;81.31;100418.06;1783908;79;21038;-72
2022/10/24 05:17:26;;;;;;;9.70;6.90;;;;;;;10.98;81.54;100411.33;1770940;79;20985;-72
2022/10/24 05:19:54;;;;;;;9.88;6.65;;;;;;;11.02;81.69;100418.91;1776765;79;20956;-73
2022/10/24 05:22:22;;;;;;;11.18;6.83;;;;;;;11.08;81.83;100425.48;1796029;79;21927;-74
2022/10/24 05:24:50;;;;;;;9.53;6.15;;;;;;;11.16;82.00;100432.31;1775988;79;20999;-74
2022/10/24 05:27:23;;;;;;;8.40;6.70;;;;;;;11.24;82.05;100434.34;1719428;82;20954;-76
2022/10/24 05:29:48;;;;;;;10.55;6.92;;;;;;;11.31;82.04;100442.14;1720377;81;21567;-73
2022/10/24 05:32:15;;;;;;;13.03;5.90;;;;;;;11.37;82.00;100437.17;1738943;80;21059;-73
2022/10/24 05:34:41;;;;;;;9.45;6.22;;;;;;;11.44;81.99;100435.71;1739139;80;21931;-72
2022/10/24 05:37:09;;;;;;;9.83;5.65;;;;;;;11.51;81.90;100440.52;1728747;81;21060;-73
2022/10/24 05:39:37;;;;;;;8.10;5.70;;;;;;;11.56;81.73;100447.09;1755080;79;21009;-71
2022/10/24 05:42:04;;;;;;;9.75;6.00;;;;;;;11.61;81.32;100448.88;1732640;81;21006;-72
2022/10/24 05:44:31;;;;;;;8.68;6.00;;;;;;;11.64;81.20;100445.97;1699429;82;21102;-73
2022/10/24 05:46:58;;;;;;;10.03;6.15;;;;;;;11.67;81.09;100448.36;1772787;79;21923;-72
2022/10/24 05:49:24;;;;;;;10.50;6.35;;;;;;;11.71;80.86;100455.09;1758215;80;21003;-72
2022/10/24 05:51:51;;;;;;;10.03;6.03;;;;;;;11.72;80.67;100462.06;1701061;81;21050;-74
2022/10/24 05:54:18;;;;;;;9.88;6.17;;;;;;;11.73;80.49;100467.70;1740480;81;20974;-73
2022/10/24 05:56:47;;;;;;;10.68;6.12;;;;;;;11.74;80.29;100469.87;1728479;80;21033;-73
2022/10/24 05:59:15;;;;;;;14.10;6.45;;;;;;;11.78;80.21;100477.92;1736864;80;21954;-74
2022/10/24 06:01:41;;;;;;;9.25;6.12;;;;;;;11.79;80.02;100474.31;1744684;81;21103;-72
2022/10/24 06:04:08;;;;;;;43.70;9.83;;;;;;;11.81;79.86;100474.21;1744971;81;21021;-68
2022/10/24 06:06:41;;;;;;;108.45;16.82;;;;;;;11.81;79.73;100476.38;1745412;81;21500;-70
2022/10/24 06:09:11;;;;;;;20.12;6.80;;;;;;;11.84;79.63;100479.23;1686893;83;21875;-73
2022/10/24 06:11:39;;;;;;;12.63;6.37;;;;;;;11.85;79.53;100476.94;1695148;82;21901;-70
2022/10/24 06:14:07;;;;;;;14.35;6.67;;;;;;;11.89;79.46;100480.55;1723879;80;21064;-72
2022/10/24 06:16:35;;;;;;;14.03;6.97;;;;;;;11.88;79.12;100477.55;1734863;81;21070;-71
2022/10/24 06:19:01;;;;;;;9.15;6.00;;;;;;;11.89;79.16;100483.20;1728604;81;21079;-73
2022/10/24 06:21:28;;;;;;;9.55;6.62;;;;;;;11.88;79.07;100484.17;1741534;80;21457;-73
2022/10/24 06:23:54;;;;;;;9.95;6.72;;;;;;;11.89;79.09;100488.97;1690497;82;21877;-73
2022/10/24 06:26:21;;;;;;;11.03;6.72;;;;;;;11.91;79.06;100491.00;1724678;81;21349;-73
2022/10/24 06:28:47;;;;;;;10.08;6.50;;;;;;;11.93;79.09;100493.88;1734423;80;21025;-73
2022/10/24 06:31:17;;;;;;;9.03;6.80;;;;;;;11.98;79.12;100484.23;1732773;80;21036;-73
2022/10/24 06:33:43;;;;;;;98.27;13.43;;;;;;;12.00;79.10;100481.81;1700319;81;21036;-74
2022/10/24 06:36:10;;;;;;;11.93;7.15;;;;;;;12.06;79.16;100489.70;1778746;79;22046;-71
2022/10/24 06:38:38;;;;;;;9.48;7.00;;;;;;;12.14;79.25;100485.94;1739185;78;21043;-72
2022/10/24 06:41:07;;;;;;;16.40;7.70;;;;;;;12.21;79.08;100492.41;1740048;79;21067;-74
2022/10/24 06:43:35;;;;;;;14.23;8.00;;;;;;;12.25;78.89;100495.63;1714602;82;21083;-70
2022/10/24 06:46:07;;;;;;;27.70;8.65;;;;;;;12.25;78.80;100489.00;1753784;79;21271;-71
2022/10/24 06:48:35;;;;;;;11.68;7.33;;;;;;;12.29;78.74;100494.41;1718585;81;21826;-71
2022/10/24 06:51:02;;;;;;;11.20;7.50;;;;;;;12.29;78.63;100487.30;1705290;80;21036;-68
2022/10/24 06:53:29;;;;;;;10.85;7.45;;;;;;;12.32;78.57;100492.33;1747664;79;20993;-71
2022/10/24 06:56:05;;;;;;;11.97;6.72;;;;;;;12.36;78.61;100493.41;1738824;79;21005;-72
2022/10/24 06:58:33;;;;;;;10.72;7.67;;;;;;;12.40;78.60;100495.66;1777325;78;21031;-72
2022/10/24 07:01:02;;;;;;;9.45;7.42;;;;;;;12.44;78.45;100501.52;1774166;78;21807;-70
2022/10/24 07:03:28;;;;;;;11.90;7.47;;;;;;;12.47;78.35;100491.52;1763299;79;21082;-71
2022/10/24 07:05:56;;;;;;;10.80;7.15;;;;;;;12.49;78.22;100490.06;1791964;78;21464;-70
2022/10/24 07:08:23;;;;;;;12.18;8.03;;;;;;;12.53;78.22;100485.69;1745961;79;21046;-70
2022/10/24 07:10:51;;;;;;;8.38;7.37;;;;;;;12.57;78.12;100484.47;1780198;79;21043;-72
2022/10/24 07:13:17;;;;;;;10.70;7.70;;;;;;;12.63;78.03;100476.94;1768149;79;21849;-73
2022/10/24 07:15:44;;;;;;;9.18;7.10;;;;;;;12.67;77.88;100474.40;1773284;79;21356;-71
2022/10/24 07:18:15;;;;;;;9.05;7.40;;;;;;;12.71;77.86;100471.34;1792371;78;20990;-71
2022/10/24 07:20:41;;;;;;;10.93;7.80;;;;;;;12.76;77.72;100470.47;1780563;78;21119;-70
2022/10/24 07:23:08;;;;;;;9.78;7.50;;;;;;;12.81;77.62;100471.37;1813682;77;21038;-70
2022/10/24 07:25:34;;;;;;;13.53;7.75;;;;;;;12.83;77.41;100480.87;1777924;78;22594;-70
2022/10/24 07:28:01;;;;;;;12.45;7.22;;;;;;;12.88;77.33;100487.11;1719303;78;21036;-70
2022/10/24 07:30:29;;;;;;;9.18;7.53;;;;;;;12.95;77.35;100484.28;1799014;78;21028;-70
2022/10/24 07:32:56;;;;;;;9.08;7.22;;;;;;;12.97;76.89;100492.94;1762868;78;21040;-73
2022/10/24 07:35:22;;;;;;;9.93;7.65;;;;;;;13.01;76.79;100501.45;1772930;79;21043;-75
2022/10/24 07:37:50;;;;;;;10.50;7.40;;;;;;;13.03;76.68;100496.88;1778929;79;21822;-72
2022/10/24 07:40:17;;;;;;;10.75;7.83;;;;;;;13.06;76.67;100500.09;1800569;78;21108;-72
2022/10/24 07:42:45;;;;;;;8.88;7.45;;;;;;;13.15;76.68;100502.42;1779846;79;21028;-72
2022/10/24 07:45:12;;;;;;;10.58;7.53;;;;;;;13.22;76.48;100500.94;1795750;79;22512;-72
2022/10/24 07:47:38;;;;;;;11.78;7.75;;;;;;;13.25;76.24;100496.68;1777410;79;21468;-72
2022/10/24 07:50:06;;;;;;;11.95;7.75;;;;;;;13.30;75.99;100501.56;1774947;79;21614;-72
2022/10/24 07:52:34;;;;;;;11.30;7.85;;;;;;;13.33;75.92;100507.95;1765544;79;21070;-71
2022/10/24 07:55:00;;;;;;;10.13;7.35;;;;;;;13.32;75.46;100508.44;1794732;79;21068;-73
2022/10/24 07:57:27;;;;;;;8.93;7.50;;;;;;;13.33;75.17;100511.44;1794171;78;21005;-71
2022/10/24 07:59:53;;;;;;;9.23;7.78;;;;;;;13.32;75.04;100504.45;1793627;79;21045;-71
2022/10/24 08:02:21;;;;;;;14.03;8.90;;;;;;;13.34;74.81;100504.31;1794979;79;21001;-71
2022/10/24 08:04:49;;;;;;;11.22;8.75;;;;;;;13.32;74.77;100496.98;1781052;79;20985;-71
2022/10/24 08:07:15;;;;;;;10.55;8.10;;;;;;;13.34;74.66;100497.20;1778366;79;21046;-72
2022/10/24 08:09:44;;;;;;;78.70;14.47;;;;;;;13.37;74.58;100505.36;1780583;79;20976;-72
2022/10/24 08:12:11;;;;;;;36.35;10.98;;;;;;;13.42;74.64;100503.15;1749334;80;21693;-72
2022/10/24 08:14:40;;;;;;;80.70;13.32;;;;;;;13.47;74.45;100500.91;1778949;78;21853;-73
2022/10/24 08:17:09;;;;;;;88.37;13.90;;;;;;;13.52;74.26;100501.84;1788025;78;21449;-74
2022/10/24 08:19:40;;;;;;;36.08;10.15;;;;;;;13.53;74.25;100505.67;1786458;78;21021;-71
2022/10/24 08:22:06;;;;;;;236.55;26.55;;;;;;;13.55;74.20;100509.03;1742651;79;21491;-75
2022/10/24 08:24:33;;;;;;;186.55;21.37;;;;;;;13.63;74.28;100507.85;1797897;77;21479;-72
2022/10/24 08:27:00;;;;;;;16.70;9.90;;;;;;;13.68;73.98;100507.42;1790993;79;21815;-72
2022/10/24 08:29:27;;;;;;;13.15;9.03;;;;;;;13.74;74.05;100512.19;1786557;79;21016;-71
2022/10/24 08:31:55;;;;;;;10.25;9.18;;;;;;;13.80;73.71;100512.11;1778280;79;21024;-70
2022/10/24 08:34:21;;;;;;;12.33;8.68;;;;;;;13.78;73.05;100514.91;1787001;79;21519;-70
2022/10/24 08:36:49;;;;;;;11.28;9.23;;;;;;;13.78;73.01;100514.06;1793945;78;21858;-69
2022/10/24 08:39:17;;;;;;;10.50;8.98;;;;;;;13.82;72.88;100516.81;1787951;77;21794;-71
2022/10/24 08:41:57;;;;;;;10.88;8.60;;;;;;;13.84;72.75;100519.67;1781946;78;21111;-69
2022/10/24 08:44:31;;;;;;;18.95;9.48;;;;;;;13.90;72.72;100518.28;1798317;78;21143;-70
2022/10/24 08:47:35;;;;;;;15.63;8.10;;;;;;;13.95;72.66;100516.03;1783809;78;21083;-69
2022/10/24 08:50:27;;;;;;;10.55;8.13;;;;;;;14.00;72.49;100517.30;1742567;79;21169;-69
2022/10/24 08:53:15;;;;;;;11.55;8.48;;;;;;;14.08;72.10;100514.41;1792969;78;21367;-68
2022/10/24 08:55:57;;;;;;;9.90;8.00;;;;;;;14.12;71.97;100517.99;1782785;79;21019;-68
2022/10/24 08:58:36;;;;;;;11.57;7.90;;;;;;;14.16;71.53;100510.08;1791123;79;21419;-69
2022/10/24 09:01:07;;;;;;;12.23;8.03;;;;;;;14.15;71.41;100509.73;1777378;78;21092;-68
2022/10/24 09:03:50;;;;;;;10.40;7.67;;;;;;;14.18;71.28;100504.13;1772795;79;21263;-77
2022/10/24 09:06:20;;;;;;;11.18;7.33;;;;;;;14.23;70.99;100502.39;1775474;78;22736;-69
2022/10/24 09:09:01;;;;;;;11.18;7.42;;;;;;;14.23;70.60;100508.53;1767963;79;21421;-72
2022/10/24 09:11:57;;;;;;;13.40;7.47;;;;;;;14.25;70.38;100513.21;1784492;78;21084;-70
2022/10/24 09:14:32;;;;;;;11.93;7.62;;;;;;;14.29;70.02;100518.61;1764760;78;20996;-67
2022/10/24 09:17:21;;;;;;;10.55;7.75;;;;;;;14.33;69.69;100516.49;1755238;79;21105;-70
2022/10/24 09:19:56;;;;;;;11.10;7.28;;;;;;;14.36;69.74;100514.87;1755034;80;21836;-69
2022/10/24 09:22:26;;;;;;;1028.20;87.05;;;;;;;14.42;69.63;100507.66;1754517;80;21095;-70
2022/10/24 09:25:03;;;;;;;19.30;8.93;;;;;;;14.47;69.51;100503.27;1732648;81;21059;-70
2022/10/24 09:27:33;;;;;;;8.78;7.25;;;;;;;14.53;69.35;100507.53;1667247;83;21123;-70
2022/10/24 09:30:01;;;;;;;10.40;7.55;;;;;;;14.56;69.04;100502.41;1712698;81;21463;-69
2022/10/24 09:32:30;;;;;;;9.65;7.00;;;;;;;14.58;68.91;100500.47;1737183;81;22971;-69
2022/10/24 09:35:04;;;;;;;8.80;6.78;;;;;;;14.64;69.00;100499.03;1746823;81;21046;-70
2022/10/24 09:37:54;;;;;;;133.63;16.55;;;;;;;14.66;68.43;100495.73;1744593;81;20988;-71
2022/10/24 09:40:23;;;;;;;10.53;6.10;;;;;;;14.69;67.89;100494.97;1741354;80;21038;-72
2022/10/24 09:43:03;;;;;;;26.52;8.10;;;;;;;14.71;67.50;100489.50;1775537;80;21478;-72
2022/10/24 09:45:44;;;;;;;8.83;6.55;;;;;;;14.78;67.68;100498.58;1780327;79;22537;-73
2022/10/24 09:48:23;;;;;;;11.20;6.12;;;;;;;14.86;67.52;100502.19;1760429;79;21027;-73
2022/10/24 09:50:51;;;;;;;9.25;6.55;;;;;;;14.88;66.84;100500.22;1782320;77;21016;-73
2022/10/24 09:53:35;;;;;;;14.53;6.70;;;;;;;14.87;66.57;100503.86;1762918;80;20949;-73
2022/10/24 09:56:12;;;;;;;7.75;6.35;;;;;;;14.88;66.70;100500.22;1767112;80;20962;-72
2022/10/24 09:58:40;;;;;;;8.78;6.42;;;;;;;14.95;66.67;100501.77;1754435;79;21857;-71
2022/10/24 10:01:19;;;;;;;9.50;7.20;;;;;;;14.99;66.61;100498.34;1757186;80;21056;-72
2022/10/24 10:04:03;;;;;;;8.18;6.75;;;;;;;15.01;66.52;100493.71;1760787;79;20976;-70
2022/10/24 10:06:31;;;;;;;26.10;9.40;;;;;;;15.02;66.38;100491.39;1749775;79;21056;-72
2022/10/24 10:08:58;;;;;;;12.18;7.67;;;;;;;14.99;66.39;100491.20;1722646;82;21018;-73
2022/10/24 10:11:30;;;;;;;10.78;7.50;;;;;;;15.02;66.34;100491.39;1761984;79;21815;-72
2022/10/24 10:14:00;;;;;;;10.00;7.62;;;;;;;15.06;66.57;100486.14;1739779;82;21394;-72
2022/10/24 10:16:33;;;;;;;11.10;8.45;;;;;;;15.23;67.16;100481.33;1729165;82;21013;-72
2022/10/24 10:19:13;;;;;;;8.65;7.75;;;;;;;15.50;67.20;100480.95;1712213;82;21060;-72
2022/10/24 10:22:00;;;;;;;11.60;10.40;;;;;;;15.78;66.92;100480.43;1743424;81;21068;-72
2022/10/24 10:24:38;;;;;;;13.68;10.63;;;;;;;15.93;65.86;100487.73;1735258;82;21973;-70
2022/10/24 10:27:34;;;;;;;12.50;10.03;;;;;;;16.00;65.02;100481.28;1711774;82;20941;-76
2022/10/24 10:30:14;;;;;;;13.65;8.95;;;;;;;16.10;65.03;100486.52;1709935;82;21551;-78
2022/10/24 10:33:12;;;;;;;11.00;8.70;;;;;;;16.31;65.02;100475.88;1760449;79;21065;-72
2022/10/24 10:35:58;;;;;;;14.45;8.78;;;;;;;16.45;63.46;100478.45;1723559;82;20999;-72
2022/10/24 10:38:45;;;;;;;12.25;8.55;;;;;;;16.47;63.61;100478.29;1764889;81;22603;-73
2022/10/24 10:41:39;;;;;;;44.38;11.90;;;;;;;16.58;63.67;100486.85;1721697;82;21014;-72
2022/10/24 10:44:15;;;;;;;57.17;10.82;;;;;;;16.63;63.15;100474.89;1739314;80;20954;-72
2022/10/24 10:47:26;;;;;;;145.80;17.45;;;;;;;16.64;63.11;100482.73;1704390;82;21067;-70
2022/10/24 10:49:57;;;;;;;12.07;8.08;;;;;;;16.66;63.11;100475.90;1740142;81;21172;-72
2022/10/24 10:52:34;;;;;;;11.28;7.70;;;;;;;16.88;63.66;100473.53;1741931;82;22936;-72
2022/10/24 10:55:28;;;;;;;9.33;7.42;;;;;;;17.06;62.47;100467.27;1753595;81;21007;-72
2022/10/24 10:58:09;;;;;;;9.73;7.23;;;;;;;17.19;61.96;100469.50;1750875;80;20949;-73
2022/10/24 11:01:06;;;;;;;14.25;8.35;;;;;;;17.25;61.89;100468.84;1726276;82;20958;-72
2022/10/24 11:03:38;;;;;;;9.35;7.00;;;;;;;17.36;61.57;100473.36;1723528;82;21024;-74
2022/10/24 11:06:23;;;;;;;12.45;7.58;;;;;;;17.39;60.97;100473.56;1773790;80;21929;-73
2022/10/24 11:09:20;;;;;;;10.00;7.42;;;;;;;17.36;60.99;100473.36;1750424;80;21125;-72
2022/10/24 11:12:02;;;;;;;10.40;7.35;;;;;;;17.27;60.90;100474.34;1737945;80;21432;-74
2022/10/24 11:14:38;;;;;;;12.43;8.15;;;;;;;17.22;60.98;100472.67;1721900;80;21084;-75
2022/10/24 11:17:18;;;;;;;9.75;8.30;;;;;;;17.12;60.91;100466.64;1774026;79;21029;-76
2022/10/24 11:20:08;;;;;;;12.37;8.10;;;;;;;17.02;61.18;100471.27;1739460;80;21957;-75
2022/10/24 11:22:44;;;;;;;11.03;7.87;;;;;;;16.94;61.47;100472.57;1763065;79;21055;-75
2022/10/24 11:25:31;;;;;;;11.97;7.22;;;;;;;16.89;61.89;100483.73;1780348;80;21480;-76
2022/10/24 11:28:28;;;;;;;13.60;7.25;;;;;;;16.80;61.91;100478.86;1692680;82;21088;-74
2022/10/24 11:31:22;;;;;;;7.87;6.37;;;;;;;16.64;62.13;100483.23;1719192;82;21006;-76
2022/10/24 11:33:59;;;;;;;7.42;5.90;;;;;;;16.47;62.59;100488.45;1751351;80;21870;-73
2022/10/24 11:36:56;;;;;;;7.58;6.20;;;;;;;16.47;62.90;100483.63;1754426;81;21000;-73
2022/10/24 11:39:39;;;;;;;8.38;5.95;;;;;;;16.50;63.01;100478.83;1750471;79;21456;-73
2022/10/24 11:42:43;;;;;;;;;;;;;;;16.55;63.00;100481.02;1785878;79;20933;-73
2022/10/24 11:45:13;;;;;;;4.70;4.23;;;;;;;16.61;63.09;100464.39;1750634;80;20185;-72
2022/10/24 11:48:09;;;;;;;7.22;5.85;;;;;;;16.71;63.24;100459.80;1735489;82;20969;-72